Time;durP1;ratioP1;P1;durP2;ratioP2;P2;SDS_P1;SDS_P2;PMS_P1;PMS_P2;Temp;Humidity;BMP_temperature;BMP_pressure;BME280_temperature;BME280_humidity;BME280_pressure;Samples;Min_cycle;Max_cycle;Signal;HPM_P1;HPM_P2
2021/05/25 00:02:04;;;;;;;9.43;4.15;;;;;;;15.65;60.84;100481.51;1647780;85;25734;-76
2021/05/25 00:04:32;;;;;;;7.55;4.22;;;;;;;15.66;60.93;100475.55;1611730;86;27569;-75
2021/05/25 00:06:59;;;;;;;7.20;4.33;;;;;;;15.65;61.04;100470.70;1606014;87;25809;-77
2021/05/25 00:09:26;;;;;;;4.85;3.40;;;;;;;15.63;61.04;100476.82;1585769;86;25628;-77
2021/05/25 00:11:53;;;;;;;6.72;4.17;;;;;;;15.63;61.10;100471.97;1655986;85;26483;-77
2021/05/25 00:14:21;;;;;;;5.55;3.95;;;;;;;15.62;61.11;100458.98;1656938;86;25781;-77
2021/05/25 00:16:49;;;;;;;8.43;4.17;;;;;;;15.63;61.12;100454.42;1627440;87;27284;-76
2021/05/25 00:19:18;;;;;;;7.22;4.33;;;;;;;15.62;61.20;100460.34;1646453;85;25711;-77
2021/05/25 00:21:45;;;;;;;8.25;3.98;;;;;;;15.60;61.33;100466.48;1625978;85;25879;-77
2021/05/25 00:24:13;;;;;;;9.98;4.40;;;;;;;15.59;61.34;100466.17;1648367;85;26432;-76
2021/05/25 00:26:40;;;;;;;6.53;4.35;;;;;;;15.57;61.37;100469.62;1648378;85;26123;-76
2021/05/25 00:29:07;;;;;;;7.78;3.77;;;;;;;15.55;61.41;100477.11;1605605;85;27638;-77
2021/05/25 00:31:34;;;;;;;6.50;3.62;;;;;;;15.56;61.42;100485.53;1616138;85;25637;-77
2021/05/25 00:34:02;;;;;;;4.58;3.60;;;;;;;15.58;61.48;100487.48;1668400;85;25787;-77
2021/05/25 00:36:29;;;;;;;4.97;2.90;;;;;;;15.61;61.44;100486.22;1628509;86;25882;-75
2021/05/25 00:38:56;;;;;;;5.12;3.37;;;;;;;15.61;61.35;100487.57;1586668;87;25889;-76
2021/05/25 00:41:23;;;;;;;4.62;3.10;;;;;;;15.63;61.44;100488.97;1588848;87;27677;-77
2021/05/25 00:43:50;;;;;;;7.92;3.30;;;;;;;15.64;61.52;100491.16;1629577;87;26551;-76
2021/05/25 00:46:18;;;;;;;5.95;3.15;;;;;;;15.64;61.75;100491.16;1604743;87;25777;-77
2021/05/25 00:48:45;;;;;;;3.50;2.87;;;;;;;15.63;62.17;100492.22;1595033;86;25906;-75
2021/05/25 00:51:12;;;;;;;7.55;4.05;;;;;;;15.58;62.54;100488.83;1588625;87;25692;-77
2021/05/25 00:53:39;;;;;;;3.92;3.20;;;;;;;15.57;62.79;100485.02;1651371;86;28088;-76
2021/05/25 00:56:07;;;;;;;5.28;3.00;;;;;;;15.57;62.88;100479.61;1626768;86;26428;-75
2021/05/25 00:58:35;;;;;;;4.08;2.90;;;;;;;15.56;63.02;100480.65;1625749;85;25780;-76
2021/05/25 01:01:03;;;;;;;5.58;3.17;;;;;;;15.52;63.08;100476.74;1618896;86;25990;-75
2021/05/25 01:03:31;;;;;;;6.97;3.20;;;;;;;15.48;63.29;100480.94;1629592;86;25697;-76
2021/05/25 01:05:58;;;;;;;5.20;2.80;;;;;;;15.43;63.54;100471.63;1603402;87;26950;-76
2021/05/25 01:08:25;;;;;;;9.48;3.40;;;;;;;15.41;63.79;100474.21;1598699;86;25917;-76
2021/05/25 01:10:55;;;;;;;3.60;2.90;;;;;;;15.40;64.01;100466.63;1624772;85;25793;-75
2021/05/25 01:13:24;;;;;;;3.58;2.75;;;;;;;15.40;63.90;100457.19;1667646;84;26394;-76
2021/05/25 01:15:52;;;;;;;7.60;3.33;;;;;;;15.40;64.09;100451.78;1646198;85;25830;-76
2021/05/25 01:18:19;;;;;;;8.75;2.77;;;;;;;15.39;64.09;100439.35;1606552;85;27629;-77
2021/05/25 01:20:49;;;;;;;6.97;3.52;;;;;;;15.39;64.25;100420.46;1644873;85;26526;-76
2021/05/25 01:23:17;;;;;;;6.80;3.10;;;;;;;15.40;64.42;100411.81;1668537;85;35476;-77
2021/05/25 01:25:48;;;;;;;4.45;3.10;;;;;;;15.40;64.36;100410.47;1603316;85;26408;-76
2021/05/25 01:28:19;;;;;;;5.55;2.70;;;;;;;15.36;64.55;100402.00;1622475;85;26580;-76
2021/05/25 01:30:53;;;;;;;6.25;3.10;;;;;;;15.31;64.61;100392.38;1620211;87;27593;-76
2021/05/25 01:33:24;;;;;;;3.30;2.42;;;;;;;15.27;64.71;100384.43;1637350;87;25724;-75
2021/05/25 01:35:51;;;;;;;6.53;3.47;;;;;;;15.25;64.78;100387.05;1636842;87;25670;-76
2021/05/25 01:38:18;;;;;;;4.47;2.62;;;;;;;15.22;64.84;100380.77;1651601;86;26575;-76
2021/05/25 01:40:46;;;;;;;5.53;3.17;;;;;;;15.17;65.04;100377.38;1606222;86;26016;-76
2021/05/25 01:43:14;;;;;;;4.22;2.87;;;;;;;15.14;64.97;100360.82;1607323;86;27220;-76
2021/05/25 01:45:42;;;;;;;4.15;2.45;;;;;;;15.14;65.05;100362.97;1625664;85;25756;-76
2021/05/25 01:48:10;;;;;;;4.05;2.70;;;;;;;15.12;65.08;100364.27;1629572;86;26502;-75
2021/05/25 01:50:39;;;;;;;6.33;2.58;;;;;;;15.11;65.21;100359.90;1628476;86;25669;-76
2021/05/25 01:53:14;;;;;;;6.45;3.10;;;;;;;15.09;65.33;100366.05;1626487;85;26480;-76
2021/05/25 01:55:45;;;;;;;6.85;2.85;;;;;;;15.08;65.42;100365.73;1660151;84;27415;-76
2021/05/25 01:58:21;;;;;;;4.90;2.60;;;;;;;15.08;65.64;100371.95;1669749;85;25741;-76
2021/05/25 02:01:08;;;;;;;4.42;2.92;;;;;;;15.08;65.71;100369.77;1647374;85;25850;-76
2021/05/25 02:03:37;;;;;;;3.70;2.37;;;;;;;15.08;65.67;100365.20;1647157;85;25822;-76
2021/05/25 02:06:09;;;;;;;3.80;3.12;;;;;;;15.09;65.80;100368.22;1618514;85;26054;-76
2021/05/25 02:08:37;;;;;;;9.23;3.02;;;;;;;15.09;65.86;100364.17;1670093;85;27392;-76
2021/05/25 02:11:07;;;;;;;3.12;2.50;;;;;;;15.10;66.00;100367.16;1648352;85;25830;-76
2021/05/25 02:13:38;;;;;;;4.10;2.70;;;;;;;15.09;66.03;100370.09;1608149;85;25739;-77
2021/05/25 02:16:10;;;;;;;6.17;3.30;;;;;;;15.07;65.97;100360.05;1613047;86;26561;-76
2021/05/25 02:18:45;;;;;;;3.60;2.45;;;;;;;15.01;65.86;100360.94;1627484;87;26468;-76
2021/05/25 02:21:17;;;;;;;5.92;3.05;;;;;;;14.99;66.19;100368.42;1608899;87;27305;-76
2021/05/25 02:23:45;;;;;;;4.22;2.75;;;;;;;14.96;66.53;100371.55;1628518;87;25685;-76
2021/05/25 02:26:12;;;;;;;6.22;3.17;;;;;;;14.92;66.48;100364.95;1587068;87;25787;-76
2021/05/25 02:28:40;;;;;;;6.83;2.60;;;;;;;14.89;66.65;100361.33;1670094;85;26465;-76
2021/05/25 02:31:08;;;;;;;5.37;3.00;;;;;;;14.88;66.84;100365.92;1647227;85;25799;-75
2021/05/25 02:33:35;;;;;;;5.03;2.75;;;;;;;14.84;67.05;100358.48;1625421;85;27521;-76
2021/05/25 02:36:04;;;;;;;4.05;2.80;;;;;;;14.82;67.38;100360.58;1626710;85;25884;-76
2021/05/25 02:38:32;;;;;;;6.62;3.10;;;;;;;14.79;67.52;100362.36;1670050;85;25609;-76
2021/05/25 02:41:00;;;;;;;5.45;3.27;;;;;;;14.77;67.64;100353.66;1648385;85;26926;-76
2021/05/25 02:43:29;;;;;;;3.42;2.67;;;;;;;14.71;67.95;100351.34;1626478;85;25733;-76
2021/05/25 02:45:57;;;;;;;3.72;2.70;;;;;;;14.64;68.31;100343.30;1647621;85;27572;-76
2021/05/25 02:48:25;;;;;;;4.08;2.95;;;;;;;14.60;68.57;100337.21;1668682;85;25705;-76
2021/05/25 02:50:52;;;;;;;5.70;2.62;;;;;;;14.58;68.70;100334.71;1646336;85;25976;-75
2021/05/25 02:53:20;;;;;;;5.12;2.80;;;;;;;14.57;68.87;100332.24;1625007;85;26412;-75
2021/05/25 02:55:47;;;;;;;5.42;3.20;;;;;;;14.56;69.21;100329.27;1669526;85;25599;-76
2021/05/25 02:58:14;;;;;;;9.18;2.85;;;;;;;14.53;69.36;100333.73;1648555;85;28648;-75
2021/05/25 03:00:45;;;;;;;3.35;2.62;;;;;;;14.52;69.69;100340.18;1646936;85;25766;-76
2021/05/25 03:03:14;;;;;;;3.47;2.55;;;;;;;14.44;69.81;100342.61;1646059;85;25719;-75
2021/05/25 03:05:43;;;;;;;3.70;2.92;;;;;;;14.42;70.00;100345.20;1622558;85;25807;-75
2021/05/25 03:08:12;;;;;;;3.55;2.85;;;;;;;14.39;70.19;100342.42;1644005;85;25776;-75
2021/05/25 03:10:43;;;;;;;3.25;2.87;;;;;;;14.38;70.38;100327.83;1669388;85;28028;-76
2021/05/25 03:13:11;;;;;;;3.98;2.98;;;;;;;14.40;70.50;100321.18;1624868;85;26039;-75
2021/05/25 03:15:42;;;;;;;5.10;2.80;;;;;;;14.37;70.59;100314.87;1624811;85;25974;-76
2021/05/25 03:18:11;;;;;;;5.95;3.00;;;;;;;14.41;70.84;100314.73;1646678;85;25833;-75
2021/05/25 03:20:43;;;;;;;4.67;2.55;;;;;;;14.42;70.79;100307.48;1626558;86;25879;-76
2021/05/25 03:23:10;;;;;;;4.50;2.98;;;;;;;14.43;71.08;100312.67;1606779;85;27419;-74
2021/05/25 03:25:37;;;;;;;6.25;3.00;;;;;;;14.40;71.14;100306.36;1626279;85;25795;-76
2021/05/25 03:28:05;;;;;;;5.45;3.20;;;;;;;14.41;71.19;100308.54;1670150;84;25772;-76
2021/05/25 03:30:33;;;;;;;5.03;3.10;;;;;;;14.40;71.39;100298.27;1645739;85;25699;-76
2021/05/25 03:33:00;;;;;;;3.95;3.50;;;;;;;14.38;71.37;100302.22;1606428;85;25906;-76
2021/05/25 03:35:28;;;;;;;5.80;3.95;;;;;;;14.38;71.73;100295.48;1625848;85;28057;-75
2021/05/25 03:37:55;;;;;;;7.10;3.50;;;;;;;14.37;71.94;100301.94;1667952;84;26363;-75
2021/05/25 03:40:23;;;;;;;10.93;4.12;;;;;;;14.35;71.86;100296.75;1647385;84;25843;-75
2021/05/25 03:42:54;;;;;;;6.95;4.12;;;;;;;14.36;72.16;100298.41;1605718;85;25897;-75
2021/05/25 03:45:22;;;;;;;;;;;;;;;14.34;72.10;100294.28;1650304;85;25706;-75
2021/05/25 03:47:49;;;;;;;6.30;3.70;;;;;;;14.33;72.59;100286.71;1667978;84;27548;-75
2021/05/25 03:50:18;;;;;;;6.58;4.15;;;;;;;14.30;72.59;100277.73;1609691;84;26538;-74
2021/05/25 03:52:48;;;;;;;6.45;3.90;;;;;;;14.32;72.63;100278.34;1607558;87;25844;-75
2021/05/25 04:00:53;;;;;;;10.98;5.22;;;;;;;14.34;73.38;100264.13;1570509;87;28202;-75
2021/05/25 04:03:20;;;;;;;8.88;4.83;;;;;;;14.39;73.40;100266.16;1622008;86;25804;-75
2021/05/25 04:05:47;;;;;;;5.28;4.15;;;;;;;14.41;73.66;100264.08;1633057;86;25728;-74
2021/05/25 04:08:16;;;;;;;5.33;3.60;;;;;;;14.43;73.62;100268.72;1654169;84;26324;-75
2021/05/25 04:10:45;;;;;;;6.12;4.00;;;;;;;14.41;73.71;100262.73;1585515;86;25693;-76
2021/05/25 04:13:14;;;;;;;8.25;4.37;;;;;;;14.38;73.75;100265.84;1625691;87;27998;-76
2021/05/25 04:15:48;;;;;;;6.00;4.20;;;;;;;14.35;73.84;100261.72;1608877;87;25764;-75
2021/05/25 04:18:15;;;;;;;6.75;4.87;;;;;;;14.34;73.89;100260.59;1664465;84;25859;-76
2021/05/25 04:20:43;;;;;;;6.60;5.50;;;;;;;14.33;74.03;100267.02;1583684;87;26517;-75
2021/05/25 04:23:10;;;;;;;7.60;5.47;;;;;;;14.31;74.24;100263.20;1607376;87;25536;-74
2021/05/25 04:25:37;;;;;;;9.18;5.45;;;;;;;14.31;74.14;100271.80;1600927;87;27419;-76
2021/05/25 04:28:04;;;;;;;5.28;4.20;;;;;;;14.27;74.72;100271.39;1656124;84;25850;-75
2021/05/25 04:30:32;;;;;;;7.08;4.90;;;;;;;14.24;74.97;100274.51;1583209;86;25710;-75
2021/05/25 04:32:58;;;;;;;7.28;4.70;;;;;;;14.21;74.87;100270.92;1608096;87;25933;-75
2021/05/25 04:35:25;;;;;;;5.00;4.17;;;;;;;14.18;75.15;100265.95;1644947;85;25720;-75
2021/05/25 04:37:55;;;;;;;7.30;3.92;;;;;;;14.14;75.08;100276.03;1664566;84;27487;-75
2021/05/25 04:40:21;;;;;;;4.95;4.05;;;;;;;14.13;75.43;100279.27;1638925;84;26232;-75
2021/05/25 04:42:49;;;;;;;6.58;4.35;;;;;;;14.13;75.41;100277.92;1607895;87;25733;-75
2021/05/25 04:45:16;;;;;;;7.08;4.10;;;;;;;14.12;75.60;100280.30;1608926;86;26442;-76
2021/05/25 04:47:43;;;;;;;7.00;4.20;;;;;;;14.13;75.98;100279.79;1635531;87;25792;-75
2021/05/25 04:50:12;;;;;;;6.53;4.47;;;;;;;14.13;76.12;100277.92;1625116;85;27136;-76
2021/05/25 04:52:40;;;;;;;7.55;4.45;;;;;;;14.14;76.00;100283.60;1604149;87;26019;-76
2021/05/25 04:55:12;;;;;;;5.53;4.80;;;;;;;14.15;76.16;100283.92;1603278;87;25804;-74
2021/05/25 04:57:40;;;;;;;6.92;4.97;;;;;;;14.14;76.21;100287.64;1631372;87;26108;-76
2021/05/25 05:00:14;;;;;;;7.33;4.75;;;;;;;14.10;77.04;100286.94;1560260;88;25892;-75
2021/05/25 05:02:41;;;;;;;7.83;5.53;;;;;;;14.05;77.01;100294.87;1606660;87;28077;-76
2021/05/25 05:05:10;;;;;;;8.83;4.65;;;;;;;14.01;76.69;100297.15;1647847;85;25744;-75
2021/05/25 05:07:38;;;;;;;7.75;4.65;;;;;;;14.04;76.85;100296.73;1656412;86;25781;-76
2021/05/25 05:10:06;;;;;;;5.08;4.33;;;;;;;14.07;76.92;100298.17;1629532;86;25867;-75
2021/05/25 05:12:34;;;;;;;7.92;4.58;;;;;;;14.09;77.09;100300.12;1623388;86;25826;-76
2021/05/25 05:15:04;;;;;;;5.55;4.10;;;;;;;14.09;76.96;100300.12;1653190;86;28090;-75
2021/05/25 05:17:31;;;;;;;6.17;4.70;;;;;;;14.09;76.98;100300.12;1627888;86;26060;-75
2021/05/25 05:19:58;;;;;;;7.42;4.42;;;;;;;14.11;77.27;100295.34;1626008;87;25822;-75
2021/05/25 05:22:26;;;;;;;6.37;3.98;;;;;;;14.09;77.44;100291.53;1590744;85;26496;-75
2021/05/25 05:24:53;;;;;;;5.15;4.25;;;;;;;14.10;77.37;100290.98;1647373;84;25765;-75
2021/05/25 05:27:20;;;;;;;4.78;4.22;;;;;;;14.15;77.46;100287.96;1636049;85;27322;-74
2021/05/25 05:29:47;;;;;;;4.70;3.70;;;;;;;14.19;77.41;100292.38;1667401;84;25881;-74
2021/05/25 05:32:15;;;;;;;6.20;4.33;;;;;;;14.23;77.57;100285.00;1646555;85;25755;-74
2021/05/25 05:34:43;;;;;;;8.48;3.90;;;;;;;14.24;77.43;100287.18;1636569;85;26309;-74
2021/05/25 05:37:10;;;;;;;5.42;3.65;;;;;;;14.27;77.46;100290.77;1635330;86;26401;-75
2021/05/25 05:39:37;;;;;;;7.70;3.87;;;;;;;14.27;77.36;100284.86;1628745;86;27340;-76
2021/05/25 05:42:05;;;;;;;4.47;4.00;;;;;;;14.31;77.49;100283.92;1617809;86;25795;-75
2021/05/25 05:44:32;;;;;;;6.67;3.92;;;;;;;14.34;77.62;100284.84;1582169;87;25775;-75
2021/05/25 05:46:59;;;;;;;7.25;4.58;;;;;;;14.35;77.42;100281.13;1626808;86;25914;-75
2021/05/25 05:49:26;;;;;;;5.00;3.92;;;;;;;14.39;77.46;100269.66;1620685;86;25781;-75
2021/05/25 05:51:53;;;;;;;5.78;3.50;;;;;;;14.39;77.35;100265.62;1582222;87;27452;-74
2021/05/25 05:54:20;;;;;;;6.55;3.25;;;;;;;14.42;77.42;100267.06;1602221;87;26571;-75
2021/05/25 05:56:48;;;;;;;4.35;3.30;;;;;;;14.44;77.41;100267.14;1627984;86;26553;-74
2021/05/25 05:59:16;;;;;;;6.00;3.80;;;;;;;14.47;77.41;100265.89;1677752;83;59341;-77
2021/05/25 06:01:43;;;;;;;5.65;3.90;;;;;;;14.49;77.33;100259.75;1652042;83;25794;-74
2021/05/25 06:04:10;;;;;;;5.17;2.72;;;;;;;14.47;77.35;100260.50;1670795;84;28381;-74
2021/05/25 06:06:37;;;;;;;7.47;3.65;;;;;;;14.50;77.19;100266.77;1652371;83;25712;-73
2021/05/25 06:09:05;;;;;;;6.55;3.60;;;;;;;14.52;77.15;100264.72;1698755;83;25356;-73
2021/05/25 06:11:32;;;;;;;5.65;3.85;;;;;;;14.54;77.20;100264.77;1610454;86;26506;-73
2021/05/25 06:13:59;;;;;;;5.67;3.40;;;;;;;14.55;77.21;100261.56;1619122;86;25759;-73
2021/05/25 06:16:26;;;;;;;3.02;2.80;;;;;;;14.55;77.05;100267.78;1649173;84;28170;-74
2021/05/25 06:18:53;;;;;;;4.92;3.30;;;;;;;14.56;77.01;100259.19;1676959;83;25779;-73
2021/05/25 06:21:21;;;;;;;3.77;2.98;;;;;;;14.59;77.18;100261.42;1662860;82;25857;-73
2021/05/25 06:23:48;;;;;;;3.20;2.90;;;;;;;14.63;77.18;100259.41;1658170;84;26458;-73
2021/05/25 06:26:15;;;;;;;6.35;2.87;;;;;;;14.66;77.17;100267.07;1621481;84;25772;-74
2021/05/25 06:28:42;;;;;;;5.22;3.65;;;;;;;14.68;77.01;100265.49;1663070;84;27974;-73
2021/05/25 06:31:09;;;;;;;4.45;2.92;;;;;;;14.69;76.98;100263.91;1667348;84;26127;-73
2021/05/25 06:33:36;;;;;;;4.22;3.15;;;;;;;14.72;76.93;100260.47;1624310;84;25725;-73
2021/05/25 06:36:04;;;;;;;4.80;2.87;;;;;;;14.75;76.89;100259.53;1671939;84;25742;-74
2021/05/25 06:38:31;;;;;;;5.60;3.15;;;;;;;14.77;76.77;100261.47;1677083;83;25743;-73
2021/05/25 06:40:58;;;;;;;3.92;3.17;;;;;;;14.81;76.79;100267.23;1673996;83;28086;-73
2021/05/25 06:43:25;;;;;;;4.97;3.27;;;;;;;14.84;76.86;100264.11;1666966;83;25589;-74
2021/05/25 06:45:52;;;;;;;4.53;3.52;;;;;;;14.84;76.68;100255.47;1653653;83;25698;-74
2021/05/25 06:48:19;;;;;;;6.08;3.37;;;;;;;14.89;76.74;100255.64;1689135;83;25812;-74
2021/05/25 06:50:46;;;;;;;4.62;3.10;;;;;;;14.99;76.89;100252.44;1632438;84;26739;-73
2021/05/25 06:53:13;;;;;;;8.93;3.40;;;;;;;15.07;76.83;100248.09;1637291;83;28005;-74
2021/05/25 06:55:40;;;;;;;5.50;3.52;;;;;;;15.14;76.71;100246.95;1675157;84;25731;-74
2021/05/25 06:58:07;;;;;;;3.92;3.20;;;;;;;15.19;76.74;100232.80;1612788;86;25757;-74
2021/05/25 07:00:35;;;;;;;3.62;2.98;;;;;;;15.22;76.56;100240.45;1642487;86;25954;-74
2021/05/25 07:03:02;;;;;;;4.45;3.10;;;;;;;15.25;76.34;100233.23;1606224;86;26176;-73
2021/05/25 07:05:29;;;;;;;5.17;3.08;;;;;;;15.27;76.09;100228.44;1644944;84;27379;-74
2021/05/25 07:07:56;;;;;;;4.55;2.95;;;;;;;15.32;76.18;100232.64;1691471;84;25694;-74
2021/05/25 07:10:23;;;;;;;3.42;2.85;;;;;;;15.34;75.86;100229.19;1649259;84;25783;-74
2021/05/25 07:12:50;;;;;;;4.22;3.12;;;;;;;15.35;76.05;100237.05;1621216;86;26414;-73
2021/05/25 07:15:17;;;;;;;5.55;3.10;;;;;;;15.40;75.90;100241.77;1674461;84;25720;-74
2021/05/25 07:17:47;;;;;;;4.67;3.30;;;;;;;15.42;75.82;100244.55;1650416;86;27416;-74
2021/05/25 07:20:15;;;;;;;5.37;3.23;;;;;;;15.42;75.67;100244.55;1618989;86;25672;-74
2021/05/25 07:22:42;;;;;;;4.72;2.90;;;;;;;15.43;75.67;100246.25;1629516;86;25704;-74
2021/05/25 07:25:10;;;;;;;4.33;2.83;;;;;;;15.47;75.70;100248.47;1611640;84;26299;-74
2021/05/25 07:27:37;;;;;;;4.85;2.95;;;;;;;15.46;75.47;100240.92;1628142;86;25241;-74
2021/05/25 07:30:06;;;;;;;5.05;2.90;;;;;;;15.47;75.56;100241.73;1642967;84;28090;-73
2021/05/25 07:32:33;;;;;;;5.83;3.02;;;;;;;15.45;75.44;100243.31;1676665;83;26208;-73
2021/05/25 07:35:01;;;;;;;5.97;3.10;;;;;;;15.46;75.40;100238.74;1643092;83;25690;-74
2021/05/25 07:37:28;;;;;;;4.17;2.70;;;;;;;15.50;75.35;100242.63;1693011;84;26342;-73
2021/05/25 07:39:55;;;;;;;6.87;2.65;;;;;;;15.52;75.37;100248.62;1664042;84;25878;-74
2021/05/25 07:42:22;;;;;;;5.42;2.85;;;;;;;15.52;75.07;100248.11;1669574;84;27419;-74
2021/05/25 07:44:49;;;;;;;3.33;2.65;;;;;;;15.51;75.30;100247.80;1651856;84;25866;-74
2021/05/25 07:47:16;;;;;;;2.90;2.60;;;;;;;15.55;75.42;100236.01;1664114;84;25713;-74
2021/05/25 07:49:43;;;;;;;5.03;2.98;;;;;;;15.67;75.84;100234.20;1648585;85;26456;-73
2021/05/25 07:52:10;;;;;;;7.60;3.22;;;;;;;15.82;75.82;100240.02;1649331;84;25735;-73
2021/05/25 07:54:37;;;;;;;6.15;3.02;;;;;;;15.90;75.62;100241.88;1666504;84;27984;-73
2021/05/25 07:57:05;;;;;;;3.27;2.80;;;;;;;15.95;75.35;100237.13;1691294;84;25742;-74
2021/05/25 07:59:32;;;;;;;5.45;3.12;;;;;;;15.96;74.93;100231.49;1647500;84;25639;-74
2021/05/25 08:01:59;;;;;;;4.05;2.95;;;;;;;15.97;74.71;100230.42;1669127;84;26434;-73
2021/05/25 08:04:26;;;;;;;3.30;2.90;;;;;;;15.97;74.55;100230.42;1650641;84;25700;-74
2021/05/25 08:06:53;;;;;;;7.55;3.50;;;;;;;16.01;74.58;100223.53;1669095;84;27400;-74
2021/05/25 08:09:20;;;;;;;6.08;3.75;;;;;;;16.09;74.70;100212.38;1669201;84;25789;-74
2021/05/25 08:11:48;;;;;;;5.20;3.35;;;;;;;16.18;74.83;100220.45;1625269;86;26008;-74
2021/05/25 08:14:15;;;;;;;5.03;3.10;;;;;;;16.24;74.21;100225.45;1642492;84;25917;-74
2021/05/25 08:16:43;;;;;;;4.65;3.10;;;;;;;16.21;73.44;100228.08;1657333;86;25732;-75
2021/05/25 08:19:16;;;;;;;6.85;3.52;;;;;;;16.18;73.44;100229.08;1623009;86;27590;-74
2021/05/25 08:21:40;;;;;;;4.35;3.67;;;;;;;16.16;73.38;100225.27;1668147;82;26259;-73
2021/05/25 08:24:08;;;;;;;4.78;3.45;;;;;;;16.17;73.23;100222.02;1664038;84;25851;-74
2021/05/25 08:26:36;;;;;;;5.45;3.83;;;;;;;16.20;73.28;100216.16;1688256;82;26342;-75
2021/05/25 08:29:04;;;;;;;4.97;3.60;;;;;;;16.27;73.32;100227.70;1611502;86;25664;-75
2021/05/25 08:31:31;;;;;;;8.70;3.55;;;;;;;16.31;72.58;100237.50;1663450;84;27612;-74
2021/05/25 08:34:00;;;;;;;4.85;3.55;;;;;;;16.27;72.55;100227.70;1640862;84;25727;-74
2021/05/25 08:36:32;;;;;;;4.67;3.70;;;;;;;16.23;72.24;100239.20;1653567;84;25619;-74
2021/05/25 08:38:59;;;;;;;4.62;3.70;;;;;;;16.18;72.18;100235.31;1621431;84;26504;-74
2021/05/25 08:41:26;;;;;;;5.55;4.10;;;;;;;16.18;72.67;100228.56;1631455;84;25665;-73
2021/05/25 08:43:53;;;;;;;7.42;3.87;;;;;;;16.27;73.10;100238.51;1648449;86;27975;-73
2021/05/25 08:46:23;;;;;;;4.42;4.00;;;;;;;16.36;72.95;100233.59;1692276;84;25478;-74
2021/05/25 08:48:49;;;;;;;5.67;3.85;;;;;;;16.44;72.94;100231.89;1663974;83;25695;-74
2021/05/25 08:51:16;;;;;;;10.50;4.20;;;;;;;16.47;72.53;100236.28;1673866;85;25748;-74
2021/05/25 08:53:43;;;;;;;5.25;3.87;;;;;;;16.48;72.16;100235.77;1625671;84;25665;-73
2021/05/25 08:56:13;;;;;;;4.78;4.15;;;;;;;16.48;72.21;100237.11;1630080;86;28068;-73
2021/05/25 08:58:40;;;;;;;7.67;4.43;;;;;;;16.48;72.24;100244.70;1686888;84;26317;-74
2021/05/25 09:01:07;;;;;;;6.05;4.17;;;;;;;16.44;71.93;100243.53;1608955;86;25997;-73
2021/05/25 09:03:57;;;;;;;7.45;4.30;;;;;;;16.34;71.36;100248.66;1663688;84;26362;-73
2021/05/25 09:06:43;;;;;;;5.92;4.00;;;;;;;16.20;71.58;100243.19;1645435;84;25807;-73
2021/05/25 09:09:16;;;;;;;4.97;3.80;;;;;;;16.10;71.57;100251.84;1684252;84;28159;-74
2021/05/25 09:12:09;;;;;;;4.60;4.20;;;;;;;16.13;72.36;100246.51;1587872;86;26385;-73
2021/05/25 09:14:33;;;;;;;4.42;4.03;;;;;;;16.27;72.80;100247.14;1630689;86;25671;-73
2021/05/25 09:17:23;;;;;;;4.47;4.08;;;;;;;16.47;72.75;100244.91;1658869;85;25849;-74
2021/05/25 09:19:55;;;;;;;4.55;4.15;;;;;;;16.68;72.82;100241.14;1684131;84;25840;-74
2021/05/25 09:22:36;;;;;;;8.10;4.58;;;;;;;16.85;71.75;100238.03;1628400;84;27291;-73
2021/05/25 09:25:24;;;;;;;7.40;4.45;;;;;;;17.00;71.99;100229.98;1632631;86;25889;-74
2021/05/25 09:28:00;;;;;;;6.40;3.60;;;;;;;17.15;71.88;100231.11;1688786;84;26063;-73
2021/05/25 09:30:32;;;;;;;3.92;3.45;;;;;;;17.23;71.22;100238.05;1650825;86;26353;-74
2021/05/25 09:33:07;;;;;;;4.80;4.30;;;;;;;17.24;70.53;100232.91;1667396;84;25852;-73
2021/05/25 09:35:41;;;;;;;6.47;4.90;;;;;;;17.24;70.44;100232.39;1632385;86;28076;-74
2021/05/25 09:38:14;;;;;;;3.87;3.50;;;;;;;17.31;70.53;100234.97;1630109;86;26494;-73
2021/05/25 09:40:50;;;;;;;9.80;3.75;;;;;;;17.50;71.03;100237.30;1687468;84;25718;-75
2021/05/25 09:43:25;;;;;;;4.05;3.60;;;;;;;17.72;70.70;100238.81;1652501;86;25707;-74
2021/05/25 09:46:14;;;;;;;3.72;3.42;;;;;;;17.91;70.83;100246.20;1656398;86;25627;-74
2021/05/25 09:48:49;;;;;;;4.20;3.80;;;;;;;18.16;70.21;100239.35;1663268;84;27468;-74
2021/05/25 09:51:26;;;;;;;5.67;3.42;;;;;;;18.42;70.44;100244.67;1654743;86;25652;-74
2021/05/25 09:53:56;;;;;;;5.22;3.58;;;;;;;18.58;68.75;100242.55;1634678;83;25808;-75
2021/05/25 09:56:30;;;;;;;4.90;3.27;;;;;;;18.69;68.10;100244.88;1664840;84;25811;-74
2021/05/25 09:58:59;;;;;;;3.20;2.77;;;;;;;18.74;68.09;100243.58;1628417;85;25838;-75
2021/05/25 10:01:35;;;;;;;5.62;3.30;;;;;;;18.81;67.17;100247.78;1690005;84;27538;-74
2021/05/25 10:04:14;;;;;;;4.30;2.58;;;;;;;18.79;66.46;100235.52;1697158;83;25659;-74
2021/05/25 10:06:48;;;;;;;4.05;3.02;;;;;;;18.92;67.11;100236.00;1659508;83;26516;-74
2021/05/25 10:09:13;;;;;;;3.22;2.37;;;;;;;19.03;65.30;100246.47;1651004;86;25770;-74
2021/05/25 10:11:44;;;;;;;3.75;2.75;;;;;;;18.98;65.10;100242.31;1693628;82;25784;-75
2021/05/25 10:14:13;;;;;;;3.50;2.47;;;;;;;18.83;63.95;100238.84;1643218;84;27407;-74
2021/05/25 10:16:43;;;;;;;3.95;2.40;;;;;;;18.77;64.12;100233.59;1619368;86;26530;-74
2021/05/25 10:21:41;;;;;;;4.05;2.67;;;;;;;18.78;65.22;100232.51;1689471;84;26338;-75
2021/05/25 10:24:09;;;;;;;4.37;2.33;;;;;;;18.95;65.11;100234.13;1633846;83;25598;-74
2021/05/25 10:26:37;;;;;;;2.30;1.90;;;;;;;19.15;64.05;100239.02;1665640;83;27585;-74
2021/05/25 10:29:06;;;;;;;3.65;1.80;;;;;;;19.09;62.05;100232.71;1684282;83;25699;-74
2021/05/25 10:31:43;;;;;;;4.70;1.90;;;;;;;18.96;62.10;100230.36;1698035;83;25802;-74
2021/05/25 10:34:17;;;;;;;3.80;1.80;;;;;;;18.92;62.66;100236.00;1662452;83;26437;-73
2021/05/25 10:36:54;;;;;;;4.97;2.05;;;;;;;18.88;61.36;100234.03;1632500;86;25741;-75
2021/05/25 10:39:40;;;;;;;2.83;2.12;;;;;;;18.90;61.86;100234.60;1663584;84;28038;-74
2021/05/25 10:42:27;;;;;;;2.75;1.87;;;;;;;18.89;61.10;100232.42;1680717;83;25635;-75
2021/05/25 10:45:16;;;;;;;2.42;1.95;;;;;;;19.02;62.13;100239.38;1664783;84;26380;-74
2021/05/25 10:48:07;;;;;;;4.58;1.92;;;;;;;19.23;61.95;100242.65;1647443;84;25907;-75
2021/05/25 10:50:37;;;;;;;3.00;1.75;;;;;;;19.29;61.29;100243.00;1685372;82;25551;-74
2021/05/25 10:53:08;;;;;;;3.17;1.80;;;;;;;19.27;59.44;100248.42;1656156;84;27491;-74
2021/05/25 10:55:44;;;;;;;2.50;1.82;;;;;;;19.13;58.90;100258.29;1666868;84;25687;-75
2021/05/25 10:58:31;;;;;;;1.90;1.70;;;;;;;19.01;59.18;100252.12;1630156;86;25765;-73
2021/05/25 11:01:01;;;;;;;2.42;1.67;;;;;;;18.94;59.47;100256.93;1686134;84;26393;-74
2021/05/25 11:03:29;;;;;;;3.50;1.80;;;;;;;18.86;59.59;100255.97;1689105;82;26067;-74
2021/05/25 11:06:02;;;;;;;2.90;2.05;;;;;;;18.82;59.95;100257.55;1658385;84;27371;-74
2021/05/25 11:08:37;;;;;;;3.92;1.77;;;;;;;18.80;60.28;100261.57;1665543;84;25865;-74
2021/05/25 11:11:11;;;;;;;2.87;2.15;;;;;;;18.75;60.36;100269.66;1684606;82;26415;-74
2021/05/25 11:13:51;;;;;;;2.30;1.72;;;;;;;18.64;60.12;100270.03;1655505;84;26301;-75
2021/05/25 11:16:32;;;;;;;4.87;2.47;;;;;;;18.54;60.40;100273.91;1656668;84;25723;-73
2021/05/25 11:19:18;;;;;;;5.35;2.20;;;;;;;18.43;60.45;100270.73;1666902;84;27357;-74
2021/05/25 11:24:42;;;;;;;4.47;2.42;;;;;;;18.23;61.17;100272.56;1682146;82;25790;-74
2021/05/25 11:27:16;;;;;;;3.02;2.42;;;;;;;18.23;61.64;100269.85;1656147;84;25800;-74
2021/05/25 11:30:01;;;;;;;4.60;2.50;;;;;;;18.38;61.80;100270.64;1673703;84;25700;-74
2021/05/25 11:32:41;;;;;;;3.83;2.25;;;;;;;18.61;62.39;100267.80;1690795;84;27508;-74
2021/05/25 11:35:23;;;;;;;2.92;2.55;;;;;;;18.83;62.41;100255.66;1664167;84;25673;-75
2021/05/25 11:37:54;;;;;;;3.70;2.70;;;;;;;18.92;60.98;100260.95;1662911;84;25726;-74
2021/05/25 11:40:27;;;;;;;3.15;2.52;;;;;;;18.94;60.52;100256.93;1648295;84;26280;-75
2021/05/25 11:42:55;;;;;;;2.83;2.55;;;;;;;18.99;60.22;100258.34;1691845;83;26407;-74
2021/05/25 11:45:26;;;;;;;3.17;2.62;;;;;;;19.15;60.11;100248.52;1656879;86;28100;-75
2021/05/25 11:47:59;;;;;;;3.37;2.70;;;;;;;19.33;60.50;100250.95;1617882;86;25691;-74